Time;durP1;ratioP1;P1;durP2;ratioP2;P2;SDS_P1;SDS_P2;PMS_P1;PMS_P2;Temp;Humidity;BMP_temperature;BMP_pressure;BME280_temperature;BME280_humidity;BME280_pressure;Samples;Min_cycle;Max_cycle;Signal;HPM_P1;HPM_P2
2023/10/06 00:00:52;;;;;;;10.00;5.60;;;;;;;14.07;71.11;100278.34;88556;277;137543;-74
2023/10/06 00:02:54;;;;;;;7.60;4.40;;;;;;;14.07;71.28;100276.41;88670;273;25210;-73
2023/10/06 00:04:56;;;;;;;8.40;5.60;;;;;;;14.06;71.33;100281.39;88513;279;136284;-76
2023/10/06 00:07:06;;;;;;;8.80;4.60;;;;;;;14.05;71.64;100278.63;88587;281;22567;-78
2023/10/06 00:09:29;;;;;;;5.50;3.90;;;;;;;14.05;71.76;100285.39;88714;274;137738;-80
2023/10/06 00:11:32;;;;;;;6.80;4.20;;;;;;;14.05;71.84;100284.48;89027;280;25191;-74
2023/10/06 00:13:37;;;;;;;5.40;3.80;;;;;;;14.05;71.80;100278.63;88790;280;136484;-79
2023/10/06 00:15:39;;;;;;;8.00;5.10;;;;;;;14.05;71.92;100276.27;88890;280;22544;-76
2023/10/06 00:17:48;;;;;;;7.20;4.50;;;;;;;14.03;72.04;100271.39;88797;280;137125;-76
2023/10/06 00:19:51;;;;;;;5.40;3.90;;;;;;;14.03;72.09;100275.17;88947;280;22554;-76
2023/10/06 00:24:11;;;;;;;8.70;4.70;;;;;;;14.02;72.34;100277.16;88670;280;137139;-75
2023/10/06 00:26:18;;;;;;;5.80;4.50;;;;;;;14.02;72.46;100279.83;88733;280;22899;-77
2023/10/06 00:28:26;;;;;;;9.30;5.20;;;;;;;14.02;72.46;100278.00;88816;280;136250;-80
2023/10/06 00:30:28;;;;;;;6.80;4.10;;;;;;;14.01;72.62;100281.86;88840;276;25165;-78
2023/10/06 00:32:31;;;;;;;8.30;4.50;;;;;;;13.99;72.73;100282.08;88715;273;136220;-75
2023/10/06 00:34:34;;;;;;;10.00;5.10;;;;;;;13.98;72.78;100280.11;88963;273;24352;-78
2023/10/06 00:36:36;;;;;;;6.40;4.00;;;;;;;13.96;73.02;100283.25;88534;281;136796;-77
2023/10/06 00:38:50;;;;;;;8.30;4.90;;;;;;;13.95;73.18;100277.73;88835;273;22526;-79
2023/10/06 00:40:54;;;;;;;9.00;4.40;;;;;;;13.92;73.24;100277.33;88715;280;136342;-75
2023/10/06 00:42:56;;;;;;;7.00;4.10;;;;;;;13.89;73.45;100278.86;88738;274;25080;-78
2023/10/06 00:44:58;;;;;;;4.80;4.00;;;;;;;13.88;73.57;100284.77;88745;272;135997;-77
2023/10/06 00:47:05;;;;;;;8.90;3.80;;;;;;;13.87;73.74;100275.62;88853;280;22554;-75
2023/10/06 00:49:08;;;;;;;9.80;4.30;;;;;;;13.86;73.86;100273.80;88848;273;136929;-76
2023/10/06 00:51:21;;;;;;;9.90;4.80;;;;;;;13.87;74.01;100277.92;88870;276;22626;-79
2023/10/06 00:53:31;;;;;;;11.10;5.70;;;;;;;13.85;74.17;100277.80;88695;277;137723;-77
2023/10/06 00:55:34;;;;;;;9.90;4.40;;;;;;;13.86;74.17;100281.27;88839;274;22772;-76
2023/10/06 00:57:36;;;;;;;7.90;4.10;;;;;;;13.85;74.33;100285.34;88783;277;137433;-77
2023/10/06 00:59:41;;;;;;;11.90;4.50;;;;;;;13.83;74.43;100280.69;88936;280;24166;-76
2023/10/06 01:01:43;;;;;;;7.40;4.30;;;;;;;13.82;74.73;100282.80;88664;280;137176;-79
2023/10/06 01:04:00;;;;;;;5.10;3.80;;;;;;;13.82;74.79;100280.12;88704;274;26264;-76
2023/10/06 01:06:07;;;;;;;8.40;4.80;;;;;;;13.81;74.96;100274.23;88798;280;22549;-75
2023/10/06 01:08:11;;;;;;;9.30;3.70;;;;;;;13.81;75.01;100276.16;88694;281;136517;-76
2023/10/06 01:10:27;;;;;;;6.90;3.80;;;;;;;13.74;75.10;100265.55;88966;279;24014;-73
2023/10/06 01:12:32;;;;;;;7.70;4.10;;;;;;;13.80;75.33;100276.45;88855;279;136644;-75
2023/10/06 01:14:35;;;;;;;8.60;4.10;;;;;;;13.80;75.47;100274.02;88518;277;22538;-75
2023/10/06 01:16:38;;;;;;;6.00;3.10;;;;;;;13.79;75.36;100275.72;88730;280;137187;-74
2023/10/06 01:18:41;;;;;;;8.00;3.60;;;;;;;13.80;75.59;100277.94;88786;274;23049;-75
2023/10/06 01:20:42;;;;;;;4.00;3.10;;;;;;;13.79;75.64;100280.13;88663;281;136929;-74
2023/10/06 01:22:44;;;;;;;5.00;3.30;;;;;;;13.81;75.56;100277.20;88889;273;25140;-75
2023/10/06 01:24:46;;;;;;;5.50;3.40;;;;;;;13.85;75.56;100276.45;88621;282;137433;-76
2023/10/06 01:26:49;;;;;;;9.30;4.30;;;;;;;13.87;75.53;100279.28;88786;273;25250;-76
2023/10/06 01:28:51;;;;;;;5.30;3.10;;;;;;;13.79;75.48;100262.37;88777;280;136491;-78
2023/10/06 01:30:52;;;;;;;7.10;4.20;;;;;;;13.87;75.42;100274.45;88687;282;22901;-75
2023/10/06 01:32:54;;;;;;;9.00;3.80;;;;;;;13.81;75.45;100265.20;88840;280;138123;-76
2023/10/06 01:34:56;;;;;;;6.10;3.10;;;;;;;13.87;75.63;100278.25;88712;276;25111;-73
2023/10/06 01:36:58;;;;;;;9.60;3.40;;;;;;;13.85;75.73;100273.15;88834;280;137002;-76
2023/10/06 01:39:31;;;;;;;6.50;4.00;;;;;;;13.83;75.67;100280.48;88974;278;24179;-75
2023/10/06 01:41:28;;;;;;;6.00;3.60;;;;;;;13.81;75.86;100276.66;88918;280;136295;-76
2023/10/06 01:43:30;;;;;;;9.10;3.60;;;;;;;13.80;76.02;100279.70;88970;280;22631;-74
2023/10/06 01:45:32;;;;;;;5.50;3.50;;;;;;;13.77;76.34;100280.72;88446;274;136249;-72
2023/10/06 01:47:33;;;;;;;7.50;3.40;;;;;;;13.72;76.49;100278.83;88694;274;25268;-72
2023/10/06 01:49:37;;;;;;;4.70;4.00;;;;;;;13.68;76.81;100277.61;88542;272;136313;-73
2023/10/06 01:51:39;;;;;;;7.40;3.50;;;;;;;13.64;77.01;100280.71;88689;280;24061;-80
2023/10/06 01:53:42;;;;;;;7.90;4.90;;;;;;;13.60;77.23;100277.79;88747;280;137642;-77
2023/10/06 01:55:49;;;;;;;6.80;3.50;;;;;;;13.58;77.38;100280.80;88911;272;25134;-76
2023/10/06 01:57:54;;;;;;;7.70;3.90;;;;;;;13.57;77.72;100278.58;88856;282;137052;-75
2023/10/06 01:59:56;;;;;;;7.70;3.60;;;;;;;13.56;77.76;100281.42;88803;282;22566;-75
2023/10/06 02:02:02;;;;;;;6.10;3.10;;;;;;;13.54;77.77;100280.19;88731;273;136544;-77
2023/10/06 02:04:08;;;;;;;6.00;3.20;;;;;;;13.53;77.90;100280.77;88707;280;137576;-75
2023/10/06 02:06:13;;;;;;;3.70;2.70;;;;;;;13.51;78.15;100283.70;88819;280;24266;-72
2023/10/06 02:08:23;;;;;;;6.10;3.30;;;;;;;13.49;78.38;100285.10;88728;276;136017;-76
2023/10/06 02:10:25;;;;;;;7.80;3.70;;;;;;;13.46;78.52;100288.48;89034;280;22825;-74
2023/10/06 02:12:27;;;;;;;5.60;3.60;;;;;;;13.44;79.06;100282.84;88310;274;136332;-73
2023/10/06 02:14:29;;;;;;;4.40;3.10;;;;;;;13.41;79.04;100287.30;88499;274;22615;-72
2023/10/06 02:16:32;;;;;;;8.40;3.60;;;;;;;13.39;78.98;100289.52;88180;282;136361;-72
2023/10/06 02:18:37;;;;;;;7.20;3.20;;;;;;;13.39;79.29;100294.59;90217;274;23696;-74
2023/10/06 02:20:41;;;;;;;6.30;3.00;;;;;;;13.37;79.73;100301.55;88291;281;136815;-75
2023/10/06 02:22:43;;;;;;;8.90;3.00;;;;;;;13.37;80.01;100303.79;88432;280;22526;-75
2023/10/06 02:24:45;;;;;;;3.60;2.50;;;;;;;13.34;79.91;100306.55;88550;280;137150;-74
2023/10/06 02:26:57;;;;;;;5.40;2.40;;;;;;;13.32;80.08;100308.03;88539;278;23613;-75
2023/10/06 02:28:59;;;;;;;4.90;2.50;;;;;;;13.29;80.28;100304.33;88809;272;137329;-74
2023/10/06 02:31:05;;;;;;;8.20;3.60;;;;;;;13.28;80.37;100304.08;88887;274;22529;-74
2023/10/06 02:33:07;;;;;;;7.00;3.30;;;;;;;13.28;80.32;100303.59;88667;277;137167;-76
2023/10/06 02:35:10;;;;;;;10.30;3.00;;;;;;;13.27;80.43;100308.98;88874;274;22535;-74
2023/10/06 02:37:12;;;;;;;5.10;2.70;;;;;;;13.28;80.56;100308.88;88403;273;136730;-76
2023/10/06 02:39:16;;;;;;;5.80;3.00;;;;;;;13.28;80.55;100307.30;88546;281;25229;-75
2023/10/06 02:41:21;;;;;;;3.90;2.80;;;;;;;13.26;80.69;100305.98;88575;272;137668;-74
2023/10/06 02:43:23;;;;;;;7.10;2.80;;;;;;;13.21;81.24;100308.48;88696;273;22722;-73
2023/10/06 02:45:30;;;;;;;4.60;2.40;;;;;;;13.20;81.37;100301.77;88467;277;137289;-74
2023/10/06 02:47:32;;;;;;;9.90;2.80;;;;;;;13.20;81.30;100301.78;88502;274;24120;-74
2023/10/06 02:49:40;;;;;;;13.30;3.20;;;;;;;13.20;81.54;100299.07;88367;274;136985;-74
2023/10/06 02:51:49;;;;;;;10.20;2.70;;;;;;;13.20;81.79;100298.00;88523;280;22580;-74
2023/10/06 02:53:51;;;;;;;8.00;3.10;;;;;;;13.20;81.66;100302.40;88487;280;137249;-72
2023/10/06 02:56:07;;;;;;;10.10;3.10;;;;;;;13.20;81.24;100299.97;88478;281;22523;-73
2023/10/06 02:58:16;;;;;;;3.50;2.00;;;;;;;13.17;81.12;100287.27;88547;273;25074;-73
2023/10/06 03:02:27;;;;;;;6.10;2.10;;;;;;;13.13;81.28;100290.37;88496;281;22540;-75
2023/10/06 03:04:35;;;;;;;8.10;2.10;;;;;;;13.12;81.35;100287.86;88529;281;136088;-75
2023/10/06 03:06:37;;;;;;;4.00;1.90;;;;;;;13.10;81.38;100293.30;88641;278;25542;-73
2023/10/06 03:08:41;;;;;;;9.00;2.30;;;;;;;13.11;81.59;100296.25;88421;278;137171;-76
2023/10/06 03:10:43;;;;;;;5.90;2.40;;;;;;;13.11;81.51;100298.40;88652;280;22534;-73
2023/10/06 03:12:46;;;;;;;5.30;2.40;;;;;;;13.11;81.83;100299.60;88501;280;137001;-73
2023/10/06 03:14:48;;;;;;;3.90;2.20;;;;;;;13.10;82.05;100298.07;88607;280;24024;-73
2023/10/06 03:16:51;;;;;;;5.40;2.80;;;;;;;13.11;82.28;100302.48;88470;276;139507;-73
2023/10/06 03:18:54;;;;;;;8.30;2.30;;;;;;;13.10;82.27;100299.06;88633;277;22650;-74
2023/10/06 03:21:13;;;;;;;4.90;2.60;;;;;;;13.07;82.63;100300.46;88487;281;140600;-74
2023/10/06 03:23:24;;;;;;;4.20;2.40;;;;;;;13.03;82.87;100305.65;88949;275;22530;-74
2023/10/06 03:25:28;;;;;;;4.10;2.30;;;;;;;13.00;82.79;100313.14;88335;281;136475;-73
2023/10/06 03:27:31;;;;;;;3.40;1.90;;;;;;;12.98;83.00;100311.58;88615;273;24326;-73
2023/10/06 03:31:56;;;;;;;12.10;2.60;;;;;;;12.94;83.55;100305.06;89007;281;22644;-75
2023/10/06 03:33:59;;;;;;;5.60;2.60;;;;;;;12.93;83.63;100307.53;88626;281;136663;-75
2023/10/06 03:36:04;;;;;;;6.90;2.80;;;;;;;12.93;83.50;100310.59;88598;276;137103;-74
2023/10/06 03:38:27;;;;;;;3.70;1.90;;;;;;;12.93;83.52;100311.08;88808;282;23000;-76
2023/10/06 03:40:35;;;;;;;4.50;2.30;;;;;;;12.93;83.75;100311.82;88860;280;137922;-72
2023/10/06 03:42:38;;;;;;;3.90;1.70;;;;;;;12.93;83.72;100309.48;88674;274;23545;-73
2023/10/06 03:44:40;;;;;;;5.90;2.60;;;;;;;12.92;83.65;100310.80;88880;273;137986;-73
2023/10/06 03:46:42;;;;;;;5.90;2.70;;;;;;;12.93;83.70;100308.65;88747;273;25546;-74
2023/10/06 03:48:49;;;;;;;4.70;1.50;;;;;;;12.92;83.79;100309.60;88339;273;136280;-73
2023/10/06 03:50:51;;;;;;;4.90;1.80;;;;;;;12.89;84.08;100311.57;88594;272;22539;-73
2023/10/06 03:52:54;;;;;;;4.70;2.20;;;;;;;12.86;84.04;100312.14;88336;278;135867;-74
2023/10/06 03:54:58;;;;;;;3.30;2.10;;;;;;;12.83;84.31;100318.10;88540;281;22555;-73
2023/10/06 03:57:00;;;;;;;3.60;1.50;;;;;;;12.80;84.52;100319.94;88375;277;136487;-73
2023/10/06 03:59:12;;;;;;;4.80;1.70;;;;;;;12.79;84.88;100318.29;88408;273;23969;-74
2023/10/06 04:01:26;;;;;;;4.50;2.50;;;;;;;12.78;84.96;100313.89;88276;273;138168;-74
2023/10/06 04:03:28;;;;;;;3.00;1.50;;;;;;;12.75;85.24;100315.95;88329;277;23855;-72
2023/10/06 04:05:36;;;;;;;2.80;1.60;;;;;;;12.73;85.37;100312.48;88357;272;137047;-76
2023/10/06 04:07:40;;;;;;;4.60;1.60;;;;;;;12.71;85.36;100313.63;88447;273;25219;-73
2023/10/06 04:09:49;;;;;;;2.40;1.30;;;;;;;12.72;85.31;100312.23;88440;272;137025;-75
2023/10/06 04:11:52;;;;;;;6.40;2.20;;;;;;;12.74;85.48;100312.13;88801;273;24057;-73
2023/10/06 04:13:55;;;;;;;5.90;2.30;;;;;;;12.75;85.44;100315.79;88405;273;136385;-73
2023/10/06 04:15:59;;;;;;;3.70;1.40;;;;;;;12.72;85.27;100313.55;88378;276;22530;-71
2023/10/06 04:18:04;;;;;;;3.40;1.40;;;;;;;12.69;85.56;100316.55;88659;273;24054;-69
2023/10/06 04:20:10;;;;;;;5.80;2.20;;;;;;;12.67;85.84;100319.46;88359;272;136479;-72
2023/10/06 04:22:12;;;;;;;5.00;2.00;;;;;;;12.68;86.06;100327.27;88510;273;24297;-72
2023/10/06 04:24:14;;;;;;;4.10;2.00;;;;;;;12.66;86.05;100329.79;88447;280;136924;-74
2023/10/06 04:26:18;;;;;;;3.30;1.60;;;;;;;12.65;86.04;100328.02;88790;281;25118;-74
2023/10/06 04:28:22;;;;;;;5.80;2.20;;;;;;;12.64;86.53;100328.89;88916;280;137685;-74
2023/10/06 04:30:25;;;;;;;5.10;2.00;;;;;;;12.61;86.61;100331.02;88622;274;25121;-73
2023/10/06 04:32:27;;;;;;;2.50;1.30;;;;;;;12.61;86.76;100335.33;88301;281;136514;-71
2023/10/06 04:34:35;;;;;;;6.30;1.70;;;;;;;12.62;86.67;100334.59;88618;276;24130;-76
2023/10/06 04:36:37;;;;;;;3.60;1.70;;;;;;;12.61;86.63;100333.40;89213;280;141583;-73
2023/10/06 04:38:40;;;;;;;4.30;1.70;;;;;;;12.64;86.61;100340.57;88690;280;24209;-72
2023/10/06 04:40:42;;;;;;;3.00;1.60;;;;;;;12.67;86.38;100343.00;88425;280;137017;-72
2023/10/06 04:42:45;;;;;;;3.10;1.50;;;;;;;12.70;86.16;100345.52;88331;275;25085;-74
2023/10/06 04:44:48;;;;;;;7.20;2.00;;;;;;;12.75;85.97;100344.54;89277;280;136355;-74
2023/10/06 04:46:52;;;;;;;6.30;1.80;;;;;;;12.97;85.67;100344.08;89732;277;23669;-76
2023/10/06 04:48:54;;;;;;;3.50;1.50;;;;;;;13.28;84.62;100343.66;88311;273;136180;-74
2023/10/06 04:50:56;;;;;;;3.10;1.40;;;;;;;13.51;82.77;100349.69;88372;276;22536;-74
2023/10/06 04:52:58;;;;;;;3.50;2.20;;;;;;;13.61;81.59;100353.23;88301;272;136040;-74
2023/10/06 04:55:03;;;;;;;4.60;2.00;;;;;;;13.66;81.13;100356.27;88457;273;23620;-76
2023/10/06 04:57:07;;;;;;;4.50;1.70;;;;;;;13.82;80.40;100353.89;91225;280;136019;-75
2023/10/06 04:59:11;;;;;;;3.20;1.40;;;;;;;14.13;79.29;100353.15;91354;278;23943;-73
2023/10/06 05:01:16;;;;;;;6.30;2.40;;;;;;;14.48;76.98;100349.64;91262;280;135881;-75
2023/10/06 05:03:18;;;;;;;4.90;1.90;;;;;;;14.64;75.44;100357.96;90525;276;22533;-75
2023/10/06 05:05:23;;;;;;;6.70;1.40;;;;;;;14.60;75.21;100362.23;88793;273;136340;-72
2023/10/06 05:07:28;;;;;;;6.60;1.50;;;;;;;14.47;75.54;100362.30;88835;282;23412;-73
2023/10/06 05:09:29;;;;;;;6.00;2.00;;;;;;;14.31;75.81;100363.61;88144;281;136199;-74
2023/10/06 05:11:32;;;;;;;3.90;1.50;;;;;;;14.11;76.51;100370.48;88484;273;22539;-75
2023/10/06 05:13:34;;;;;;;1.90;1.20;;;;;;;13.89;77.50;100368.93;88481;272;136381;-77
2023/10/06 05:15:37;;;;;;;3.20;1.90;;;;;;;13.67;78.34;100376.84;88545;274;24849;-79
2023/10/06 05:17:39;;;;;;;8.40;3.30;;;;;;;13.53;79.20;100378.81;88746;278;136057;-75
2023/10/06 05:19:41;;;;;;;4.40;1.40;;;;;;;13.40;80.11;100380.83;88598;283;24261;-74
2023/10/06 05:21:43;;;;;;;6.50;1.70;;;;;;;13.30;80.62;100383.29;88462;280;137112;-75
2023/10/06 05:23:45;;;;;;;4.40;2.10;;;;;;;13.23;81.25;100382.20;88586;280;24013;-73
2023/10/06 05:25:47;;;;;;;2.80;1.80;;;;;;;13.19;81.69;100388.25;88846;280;137048;-76
2023/10/06 05:27:50;;;;;;;4.70;1.50;;;;;;;13.17;82.00;100384.02;88562;277;22527;-75
2023/10/06 05:29:52;;;;;;;6.80;2.40;;;;;;;13.20;82.13;100389.85;88727;273;137632;-72
2023/10/06 05:31:54;;;;;;;4.20;1.40;;;;;;;13.24;81.81;100389.00;88580;273;25229;-75
2023/10/06 05:33:56;;;;;;;2.30;1.10;;;;;;;13.20;82.02;100392.00;88563;273;137534;-77
2023/10/06 05:35:59;;;;;;;2.80;1.80;;;;;;;13.14;82.36;100384.49;88839;273;22542;-75
2023/10/06 05:38:13;;;;;;;6.20;1.60;;;;;;;13.08;82.52;100388.68;88674;272;135865;-76
2023/10/06 05:40:20;;;;;;;3.90;1.10;;;;;;;13.08;82.66;100391.20;88742;280;136378;-75
2023/10/06 05:42:22;;;;;;;3.60;2.10;;;;;;;13.18;82.63;100389.81;88711;274;23236;-75
2023/10/06 05:44:24;;;;;;;5.70;1.40;;;;;;;13.40;82.18;100394.88;88283;277;136898;-77
2023/10/06 05:46:25;;;;;;;5.50;1.30;;;;;;;13.88;80.45;100395.69;88346;278;23954;-75
2023/10/06 05:48:30;;;;;;;2.60;0.90;;;;;;;14.53;77.54;100396.61;88347;272;137231;-78
2023/10/06 05:50:35;;;;;;;3.70;1.40;;;;;;;15.28;72.84;100388.96;88770;282;22515;-75
2023/10/06 05:52:38;;;;;;;6.70;0.80;;;;;;;15.90;68.97;100387.43;88701;274;136636;-77
2023/10/06 05:54:41;;;;;;;4.20;1.40;;;;;;;16.48;65.94;100401.77;88906;274;25149;-73
2023/10/06 05:56:45;;;;;;;8.50;1.20;;;;;;;16.92;64.34;100403.63;88577;277;137688;-75
2023/10/06 05:58:46;;;;;;;2.60;0.90;;;;;;;17.38;62.25;100411.77;88800;278;24049;-79
2023/10/06 06:01:05;;;;;;;1.80;0.90;;;;;;;17.84;60.46;100409.88;88835;277;136915;-76
2023/10/06 06:03:13;;;;;;;2.90;0.80;;;;;;;18.27;57.16;100413.20;88888;277;25146;-79
2023/10/06 06:05:15;;;;;;;3.80;1.20;;;;;;;18.36;55.51;100410.46;88773;273;136927;-71
2023/10/06 06:07:18;;;;;;;5.20;0.90;;;;;;;18.34;55.69;100414.27;88529;272;24617;-72
2023/10/06 06:09:19;;;;;;;7.20;1.00;;;;;;;18.40;55.33;100420.54;88655;272;137539;-72
2023/10/06 06:11:22;;;;;;;5.40;0.80;;;;;;;18.46;55.14;100421.46;88565;277;25143;-70
2023/10/06 06:13:24;;;;;;;4.60;0.60;;;;;;;18.26;55.15;100420.39;88384;280;136466;-66
2023/10/06 06:15:26;;;;;;;1.40;0.60;;;;;;;17.91;55.78;100419.14;88430;274;25124;-69
2023/10/06 06:17:28;;;;;;;4.00;0.30;;;;;;;17.47;56.34;100417.53;88369;272;137378;-69
2023/10/06 06:19:32;;;;;;;2.30;0.40;;;;;;;16.79;57.57;100415.55;88467;280;22531;-69
2023/10/06 06:21:34;;;;;;;8.30;0.40;;;;;;;16.27;59.49;100433.80;88367;280;136442;-69
2023/10/06 06:23:36;;;;;;;35.50;15.50;;;;;;;15.77;61.27;100438.40;88855;272;23876;-69
2023/10/06 06:25:40;;;;;;;7.50;1.70;;;;;;;15.43;62.76;100442.88;88427;273;136632;-70
2023/10/06 06:27:42;;;;;;;21.00;6.30;;;;;;;15.18;63.77;100448.69;88565;272;22609;-69
2023/10/06 06:29:46;;;;;;;10.60;2.70;;;;;;;14.97;64.44;100452.52;88502;276;136426;-68
2023/10/06 06:31:49;;;;;;;11.00;0.70;;;;;;;14.80;65.30;100447.25;88474;274;22531;-69
2023/10/06 06:33:56;;;;;;;5.00;1.10;;;;;;;14.67;65.61;100455.48;88641;272;137685;-70
2023/10/06 06:36:00;;;;;;;6.00;0.40;;;;;;;14.57;65.62;100445.56;88524;277;22544;-68
2023/10/06 06:38:06;;;;;;;6.20;1.60;;;;;;;14.58;65.90;100446.09;88624;273;25161;-70
2023/10/06 06:40:13;;;;;;;21.10;1.70;;;;;;;14.62;65.82;100460.28;91222;280;137472;-69
2023/10/06 06:42:15;;;;;;;7.90;0.40;;;;;;;14.68;65.28;100461.83;91348;280;22355;-75
2023/10/06 06:44:18;;;;;;;3.20;0.40;;;;;;;14.76;64.99;100470.10;91199;282;136908;-79
2023/10/06 06:46:21;;;;;;;2.00;0.30;;;;;;;14.79;65.00;100469.50;91359;281;23191;-74
2023/10/06 06:48:22;;;;;;;4.90;0.70;;;;;;;14.75;64.55;100464.90;91160;277;137278;-76
2023/10/06 06:50:24;;;;;;;2.10;0.40;;;;;;;14.71;64.92;100472.85;88840;280;22554;-73
2023/10/06 06:52:28;;;;;;;2.50;0.40;;;;;;;14.71;65.27;100476.23;88244;272;137081;-71
2023/10/06 06:54:36;;;;;;;1.90;0.20;;;;;;;14.70;64.82;100477.59;88308;272;25189;-79
2023/10/06 06:56:38;;;;;;;2.10;0.50;;;;;;;14.64;64.50;100481.69;88436;272;136140;-76
2023/10/06 06:58:41;;;;;;;4.80;0.10;;;;;;;14.56;63.86;100473.77;88371;273;24164;-75
2023/10/06 07:00:43;;;;;;;1.60;0.20;;;;;;;14.47;63.61;100482.70;88589;273;136097;-77
2023/10/06 07:02:46;;;;;;;6.20;0.30;;;;;;;14.40;63.65;100484.08;88948;272;22652;-76
2023/10/06 07:04:48;;;;;;;2.30;0.20;;;;;;;14.34;63.68;100488.42;88778;280;135893;-78
2023/10/06 07:06:52;;;;;;;0.90;0.30;;;;;;;14.28;63.63;100491.33;88863;281;24015;-77
2023/10/06 07:08:57;;;;;;;0.50;0.20;;;;;;;14.25;64.05;100494.95;88862;278;136838;-75
2023/10/06 07:10:58;;;;;;;1.30;0.10;;;;;;;14.22;62.93;100491.95;89133;273;22596;-74
2023/10/06 07:13:03;;;;;;;2.20;0.20;;;;;;;14.20;63.28;100492.09;88460;273;136752;-77
2023/10/06 07:15:14;;;;;;;1.50;0.50;;;;;;;14.20;63.17;100491.46;88508;277;22557;-75
2023/10/06 07:17:17;;;;;;;1.10;0.20;;;;;;;14.19;63.31;100494.68;89302;277;136232;-76
2023/10/06 07:19:19;;;;;;;0.70;0.10;;;;;;;14.21;63.45;100493.85;89284;280;22530;-79
2023/10/06 07:21:22;;;;;;;0.80;0.20;;;;;;;14.23;63.63;100492.36;88845;280;136944;-77
2023/10/06 07:23:24;;;;;;;11.10;1.70;;;;;;;14.28;63.56;100492.59;89027;281;23320;-74
2023/10/06 07:25:27;;;;;;;4.80;0.30;;;;;;;14.33;61.44;100489.91;88397;273;136492;-77
2023/10/06 07:27:34;;;;;;;1.30;0.10;;;;;;;14.37;60.19;100485.69;88566;273;25075;-78
2023/10/06 07:29:35;;;;;;;4.80;0.20;;;;;;;14.36;60.10;100491.85;88781;273;136225;-78
2023/10/06 07:33:05;;;;;;;6.00;0.20;;;;;;;14.31;60.94;100497.22;86781;305;603608;-78
2023/10/06 07:35:09;;;;;;;4.30;0.50;;;;;;;14.35;61.17;100504.35;88157;288;22475;-77
2023/10/06 07:37:12;;;;;;;0.60;0.30;;;;;;;14.38;61.45;100506.65;87865;295;135446;-75
2023/10/06 07:39:20;;;;;;;2.30;0.10;;;;;;;14.42;61.65;100508.38;88622;282;22538;-80
2023/10/06 07:41:23;;;;;;;1.20;0.30;;;;;;;14.48;61.30;100514.92;88451;284;135402;-78
2023/10/06 07:43:27;;;;;;;5.30;0.20;;;;;;;14.48;60.17;100498.09;88650;282;25175;-72
2023/10/06 07:45:31;;;;;;;5.20;0.30;;;;;;;14.45;59.53;100508.13;88788;286;135764;-73
2023/10/06 07:47:35;;;;;;;5.80;0.50;;;;;;;14.41;58.34;100505.33;88600;285;517646;-73
2023/10/06 07:49:40;;;;;;;2.70;0.20;;;;;;;14.31;58.45;100495.98;88093;277;136957;-76
2023/10/06 07:51:45;;;;;;;8.10;0.40;;;;;;;14.39;58.13;100500.21;91098;285;22397;-76
2023/10/06 07:53:48;;;;;;;;;;;;;;;14.40;57.48;100497.70;90876;286;137033;-80
2023/10/06 07:55:50;;;;;;;1.50;0.20;;;;;;;14.44;57.54;100513.66;91163;284;22417;-75
2023/10/06 07:57:52;;;;;;;3.90;0.10;;;;;;;14.45;57.70;100516.38;91087;284;136333;-78
2023/10/06 07:59:54;;;;;;;1.80;0.10;;;;;;;14.46;57.63;100522.52;90850;283;22338;-75
2023/10/06 08:01:55;;;;;;;0.50;0.10;;;;;;;14.44;57.91;100527.80;91019;284;135901;-79
2023/10/06 08:03:57;;;;;;;0.80;0.10;;;;;;;14.39;58.12;100518.41;91136;285;22501;-75
2023/10/06 08:06:00;;;;;;;1.50;0.10;;;;;;;14.47;58.22;100524.70;91013;285;136245;-74
2023/10/06 08:08:04;;;;;;;1.30;0.10;;;;;;;14.50;57.63;100528.20;88750;286;22582;-75
2023/10/06 08:10:07;;;;;;;0.90;0.10;;;;;;;14.52;57.41;100536.34;88774;285;22476;-74
2023/10/06 08:12:09;;;;;;;3.50;0.60;;;;;;;14.49;57.35;100530.47;88609;277;137457;-74
2023/10/06 08:14:13;;;;;;;2.60;0.40;;;;;;;14.45;57.58;100538.04;88784;276;22616;-75
2023/10/06 08:16:15;;;;;;;5.30;0.30;;;;;;;14.40;58.07;100534.73;88630;276;137008;-76
2023/10/06 08:18:17;;;;;;;2.40;0.10;;;;;;;14.36;58.65;100535.70;88791;277;24117;-77
2023/10/06 08:20:24;;;;;;;3.90;0.10;;;;;;;14.42;58.78;100536.48;88533;282;135653;-75
2023/10/06 08:22:26;;;;;;;1.20;0.10;;;;;;;14.50;57.87;100540.42;88867;277;25083;-77
2023/10/06 08:24:28;;;;;;;3.00;0.40;;;;;;;14.54;57.50;100538.92;88607;278;135878;-75
2023/10/06 08:26:29;;;;;;;0.70;0.20;;;;;;;14.59;57.44;100544.88;88686;276;22775;-76
2023/10/06 08:28:31;;;;;;;1.20;0.10;;;;;;;14.63;57.36;100543.82;88696;281;135963;-75
2023/10/06 08:30:34;;;;;;;0.80;0.10;;;;;;;14.67;57.61;100543.96;88735;276;22555;-72
2023/10/06 08:32:37;;;;;;;0.50;0.20;;;;;;;14.73;57.53;100534.98;88595;276;135713;-76
2023/10/06 08:34:39;;;;;;;2.50;0.10;;;;;;;14.77;56.76;100539.45;88623;286;23659;-76
2023/10/06 08:36:41;;;;;;;1.60;0.10;;;;;;;14.76;56.37;100537.10;88209;276;135965;-74
2023/10/06 08:38:46;;;;;;;6.30;0.20;;;;;;;14.72;56.11;100532.01;88333;276;22553;-70
2023/10/06 08:40:55;;;;;;;0.90;0.20;;;;;;;14.67;54.39;100539.05;88823;276;136663;-67
2023/10/06 08:42:57;;;;;;;3.20;0.10;;;;;;;14.61;54.84;100541.05;88499;276;22534;-71
2023/10/06 08:44:59;;;;;;;0.90;0.10;;;;;;;14.55;54.66;100546.08;88267;284;135922;-73
2023/10/06 08:47:03;;;;;;;5.20;0.10;;;;;;;14.51;54.78;100542.61;88691;281;22535;-70
2023/10/06 08:49:25;;;;;;;3.80;0.10;;;;;;;14.48;55.12;100545.86;88073;278;136137;-71
2023/10/06 08:51:32;;;;;;;0.70;0.00;;;;;;;14.49;55.46;100547.23;88572;278;25269;-72
2023/10/06 08:53:38;;;;;;;0.20;0.10;;;;;;;14.50;54.71;100542.17;88161;278;136138;-71
2023/10/06 08:55:44;;;;;;;0.50;0.10;;;;;;;14.48;54.82;100550.00;88343;285;22623;-72
2023/10/06 08:57:47;;;;;;;4.50;0.10;;;;;;;14.48;55.11;100552.47;88073;278;135800;-72
2023/10/06 08:59:49;;;;;;;5.20;0.50;;;;;;;14.51;55.38;100553.13;88251;278;24173;-71
2023/10/06 09:01:51;;;;;;;2.80;0.30;;;;;;;14.57;55.18;100541.25;88145;278;135975;-73
2023/10/06 09:03:55;;;;;;;0.50;0.10;;;;;;;14.65;54.12;100546.77;88192;281;22534;-71
2023/10/06 09:05:57;;;;;;;4.90;0.10;;;;;;;14.70;53.31;100551.14;88100;281;135724;-72
2023/10/06 09:07:58;;;;;;;6.10;0.10;;;;;;;14.74;53.47;100551.34;88200;278;25194;-73
2023/10/06 09:10:17;;;;;;;1.60;0.10;;;;;;;14.75;53.67;100544.48;88591;286;135865;-71
2023/10/06 09:12:23;;;;;;;2.20;0.00;;;;;;;14.78;53.81;100552.89;88895;281;137074;-71
2023/10/06 09:14:25;;;;;;;5.00;0.10;;;;;;;14.79;53.81;100550.91;88556;278;24216;-65
2023/10/06 09:16:47;;;;;;;1.00;0.10;;;;;;;14.78;53.58;100551.90;88091;281;135891;-65
2023/10/06 09:19:00;;;;;;;1.70;0.20;;;;;;;14.73;53.10;100551.17;88240;278;23878;-66
2023/10/06 09:21:13;;;;;;;1.60;0.00;;;;;;;14.69;52.84;100549.91;88283;280;136099;-66
2023/10/06 09:23:39;;;;;;;3.20;0.10;;;;;;;14.64;52.34;100561.38;88224;282;22533;-67
2023/10/06 09:25:45;;;;;;;2.60;0.10;;;;;;;14.57;52.25;100560.15;88210;276;135818;-68
2023/10/06 09:27:50;;;;;;;6.60;0.20;;;;;;;14.54;52.00;100551.10;88506;283;22547;-68
2023/10/06 09:30:00;;;;;;;2.20;0.20;;;;;;;14.44;52.18;100548.48;88295;277;135760;-68
2023/10/06 09:32:20;;;;;;;2.10;0.40;;;;;;;14.53;52.12;100561.80;88128;278;137258;-65
2023/10/06 09:34:25;;;;;;;2.60;0.10;;;;;;;14.58;51.78;100568.11;88235;284;22636;-64
2023/10/06 09:36:33;;;;;;;;;;;;;;;14.64;50.58;100568.19;88192;280;135746;-67
2023/10/06 09:38:45;;;;;;;1.20;0.40;;;;;;;14.65;50.09;100563.20;88230;284;22556;-65
2023/10/06 09:40:48;;;;;;;0.90;0.10;;;;;;;14.66;49.99;100567.33;88123;274;137021;-64
2023/10/06 09:42:51;;;;;;;3.40;0.10;;;;;;;14.67;50.30;100570.70;88465;275;23745;-67
2023/10/06 09:45:06;;;;;;;2.00;0.20;;;;;;;14.65;50.47;100562.75;88408;275;135999;-66
2023/10/06 09:47:11;;;;;;;1.40;0.20;;;;;;;14.65;50.37;100565.60;88308;276;26002;-64
2023/10/06 09:49:18;;;;;;;2.20;0.20;;;;;;;14.65;50.56;100577.08;88277;280;137305;-65
2023/10/06 09:51:23;;;;;;;1.30;0.10;;;;;;;14.64;50.46;100577.52;88991;276;22543;-65